Stevensville, MD

11:34 PM EDT on October 01, 2014 (GMT -0400)
Annapolis Naval Academy | Change Station
CLOSE
Current Station
Airport
Location: Annapolis Naval Academy,
Elevation: 7 ft
Nearby Weather Stations

Elev 7 ft 38.99 °N, 76.49 °W | Updated 40 minutes ago

Partly Cloudy
Partly Cloudy
66 °F
Feels Like 66 °F
N
5
Wind Variable Wind from ENE

Today
High -- | Low -- °F
--% Chance of Precip.
Yesterday
High -- | Low -- °F
Precip. -- in
7:01 AM 6:48 PM
First Quarter, 54% visible
Pressure 30.07 in
Visibility 10.0 miles
Clouds Scattered Clouds 4000 ft
Dew Point 61 °F
Humidity 84%
Rainfall 0.00 in
Snow Depth Not available.
UV 0 out of 12
Pollen 3.70 out of 12
Air Quality Not available.
Flu Activity Not available.
METAR KNAK 020254Z AUTO 06004KT 10SM SCT040 19/16 A3006 RMK AO2 SLP182 T01890161 51013

More Conditions Fewer Conditions

Pressure 30.07 in
Visibility 10.0 miles
Clouds Scattered Clouds 4000 ft
Dew Point 61 °F
Humidity 84%
Rainfall 0.00 in
Snow Depth Not available.
UV 0 out of 12
Pollen 3.70 out of 12
Air Quality Not available.
Flu Activity Not available.
METAR KNAK 020254Z AUTO 06004KT 10SM SCT040 19/16 A3006 RMK AO2 SLP182 T01890161 51013

More Conditions Fewer Conditions

10-Day Weather Forecast

Almanac

Astronomy

Oct. 01, 2014 Rise Set
Actual Time 7:01 AM EDT 6:48 PM EDT
Civil Twilight 6:34 AM EDT 7:14 PM EDT
Nautical Twilight 6:03 AM EDT 7:45 PM EDT
Astronomical Twilight 5:32 AM EDT 8:16 PM EDT
Moon 1:58 PM EDT (10/1) No Moon Set
Length of Visible Light 12h 39m
Length of Day
11h 46m
Tomorrow will be 2m 30s shorter.
First Quarter, 54% of the Moon is Illuminated
Today
First Quarter
Oct 8
Full
Oct 15
Last Quarter
Oct 23
New
Oct 30
First Quarter

Today's Extremes

State Highs State Lows

Community

WunderPhotos

Upload Photos

1,758,162 photos uploaded!

Nearby

Snow Depth

Station Depth Elevation
No new snow has been reported.

Earthquake Activity

City Distance Mag. Time & Date
No recent earthquake activity has been reported nearby.
Minimum magnitude displayed is 2.5.

Coastal Water Temperatures

Place Temperature
Cambridge, MD 71.1 °F
Tolchester Beach, MD 73.0 °F
Baltimore, MD 73.9 °F

Nearby Weather Stations